sensor_id;sensor_type;location;lat;lon;timestamp;temperature;humidity
75466;HTU21D;64049;46.290;44.240;2023-07-16T00:01:33;17.70;67.26
75466;HTU21D;64049;46.290;44.240;2023-07-16T00:03:59;17.67;67.89
75466;HTU21D;64049;46.290;44.240;2023-07-16T00:06:25;17.62;67.78
75466;HTU21D;64049;46.290;44.240;2023-07-16T00:08:51;17.58;67.95
75466;HTU21D;64049;46.290;44.240;2023-07-16T00:11:17;17.53;68.00
75466;HTU21D;64049;46.290;44.240;2023-07-16T00:13:43;17.47;68.17
75466;HTU21D;64049;46.290;44.240;2023-07-16T00:16:13;17.43;68.58
75466;HTU21D;64049;46.290;44.240;2023-07-16T00:18:40;17.41;68.52
75466;HTU21D;64049;46.290;44.240;2023-07-16T00:21:06;17.39;68.75
75466;HTU21D;64049;46.290;44.240;2023-07-16T00:23:32;17.32;68.91
75466;HTU21D;64049;46.290;44.240;2023-07-16T00:25:58;17.22;68.96
75466;HTU21D;64049;46.290;44.240;2023-07-16T00:28:24;17.19;69.25
75466;HTU21D;64049;46.290;44.240;2023-07-16T00:30:50;17.14;69.36
75466;HTU21D;64049;46.290;44.240;2023-07-16T00:33:15;17.10;69.38
75466;HTU21D;64049;46.290;44.240;2023-07-16T00:35:48;17.07;69.49
75466;HTU21D;64049;46.290;44.240;2023-07-16T00:38:16;17.06;69.83
75466;HTU21D;64049;46.290;44.240;2023-07-16T00:40:43;17.03;69.83
75466;HTU21D;64049;46.290;44.240;2023-07-16T00:43:09;17.00;69.90
75466;HTU21D;64049;46.290;44.240;2023-07-16T00:45:37;16.95;70.00
75466;HTU21D;64049;46.290;44.240;2023-07-16T00:48:07;16.89;70.16
75466;HTU21D;64049;46.290;44.240;2023-07-16T00:50:36;16.84;70.18
75466;HTU21D;64049;46.290;44.240;2023-07-16T00:53:11;16.79;70.42
75466;HTU21D;64049;46.290;44.240;2023-07-16T00:55:38;16.78;70.59
75466;HTU21D;64049;46.290;44.240;2023-07-16T01:01:52;16.78;70.56
75466;HTU21D;64049;46.290;44.240;2023-07-16T01:04:18;16.78;70.48
75466;HTU21D;64049;46.290;44.240;2023-07-16T01:06:48;16.78;70.49
75466;HTU21D;64049;46.290;44.240;2023-07-16T01:12:07;16.70;70.21
75466;HTU21D;64049;46.290;44.240;2023-07-16T01:14:34;16.59;70.35
75466;HTU21D;64049;46.290;44.240;2023-07-16T01:17:04;16.51;70.38
75466;HTU21D;64049;46.290;44.240;2023-07-16T01:19:46;16.39;70.20
75466;HTU21D;64049;46.290;44.240;2023-07-16T01:35:28;15.65;71.80
75466;HTU21D;64049;46.290;44.240;2023-07-16T01:41:06;15.62;71.80
75466;HTU21D;64049;46.290;44.240;2023-07-16T01:43:31;15.65;72.10
75466;HTU21D;64049;46.290;44.240;2023-07-16T01:45:57;15.74;72.26
75466;HTU21D;64049;46.290;44.240;2023-07-16T01:48:38;15.80;72.09
75466;HTU21D;64049;46.290;44.240;2023-07-16T01:51:04;15.83;72.20
75466;HTU21D;64049;46.290;44.240;2023-07-16T01:53:31;15.86;72.22
75466;HTU21D;64049;46.290;44.240;2023-07-16T01:56:03;15.87;72.15
75466;HTU21D;64049;46.290;44.240;2023-07-16T02:01:55;15.97;72.09
75466;HTU21D;64049;46.290;44.240;2023-07-16T02:04:22;16.03;72.06
75466;HTU21D;64049;46.290;44.240;2023-07-16T02:06:48;16.11;71.89
75466;HTU21D;64049;46.290;44.240;2023-07-16T02:09:23;16.17;71.84
75466;HTU21D;64049;46.290;44.240;2023-07-16T02:11:51;16.28;71.78
75466;HTU21D;64049;46.290;44.240;2023-07-16T02:14:17;16.35;71.66
75466;HTU21D;64049;46.290;44.240;2023-07-16T02:16:43;16.43;71.55
75466;HTU21D;64049;46.290;44.240;2023-07-16T02:22:19;16.66;71.33
75466;HTU21D;64049;46.290;44.240;2023-07-16T02:24:45;16.77;70.98
75466;HTU21D;64049;46.290;44.240;2023-07-16T02:27:12;16.90;70.73
75466;HTU21D;64049;46.290;44.240;2023-07-16T02:30:03;17.00;70.40
75466;HTU21D;64049;46.290;44.240;2023-07-16T02:32:29;17.05;70.09
75466;HTU21D;64049;46.290;44.240;2023-07-16T02:34:55;17.16;69.90
75466;HTU21D;64049;46.290;44.240;2023-07-16T02:37:21;17.22;69.74
75466;HTU21D;64049;46.290;44.240;2023-07-16T02:39:47;17.32;69.62
75466;HTU21D;64049;46.290;44.240;2023-07-16T02:42:14;17.40;69.51
75466;HTU21D;64049;46.290;44.240;2023-07-16T02:44:40;17.49;69.42
75466;HTU21D;64049;46.290;44.240;2023-07-16T02:47:13;17.56;69.36
75466;HTU21D;64049;46.290;44.240;2023-07-16T02:53:26;17.81;69.09
75466;HTU21D;64049;46.290;44.240;2023-07-16T02:55:52;17.75;68.93
75466;HTU21D;64049;46.290;44.240;2023-07-16T02:58:37;17.64;69.12
75466;HTU21D;64049;46.290;44.240;2023-07-16T03:01:03;17.61;69.17
75466;HTU21D;64049;46.290;44.240;2023-07-16T03:03:29;17.62;69.10
75466;HTU21D;64049;46.290;44.240;2023-07-16T03:05:55;17.65;68.97
75466;HTU21D;64049;46.290;44.240;2023-07-16T03:11:29;17.77;68.71
75466;HTU21D;64049;46.290;44.240;2023-07-16T03:13:55;17.84;68.57
75466;HTU21D;64049;46.290;44.240;2023-07-16T03:16:21;17.92;68.41
75466;HTU21D;64049;46.290;44.240;2023-07-16T03:18:58;18.02;68.27
75466;HTU21D;64049;46.290;44.240;2023-07-16T03:21:24;18.07;68.07
75466;HTU21D;64049;46.290;44.240;2023-07-16T03:23:50;18.17;67.94
75466;HTU21D;64049;46.290;44.240;2023-07-16T03:26:16;18.24;67.72
75466;HTU21D;64049;46.290;44.240;2023-07-16T03:29:02;18.34;67.52
75466;HTU21D;64049;46.290;44.240;2023-07-16T03:31:28;18.43;67.24
75466;HTU21D;64049;46.290;44.240;2023-07-16T03:33:56;18.52;66.97
75466;HTU21D;64049;46.290;44.240;2023-07-16T03:36:24;18.65;66.63
75466;HTU21D;64049;46.290;44.240;2023-07-16T03:42:50;19.28;61.84
75466;HTU21D;64049;46.290;44.240;2023-07-16T03:45:16;19.50;60.33
75466;HTU21D;64049;46.290;44.240;2023-07-16T03:47:43;19.65;59.48
75466;HTU21D;64049;46.290;44.240;2023-07-16T03:50:09;19.77;57.48
75466;HTU21D;64049;46.290;44.240;2023-07-16T03:52:35;19.92;55.97
75466;HTU21D;64049;46.290;44.240;2023-07-16T03:55:01;20.04;56.23
75466;HTU21D;64049;46.290;44.240;2023-07-16T04:01:14;20.33;53.58
75466;HTU21D;64049;46.290;44.240;2023-07-16T04:03:40;20.36;53.56
75466;HTU21D;64049;46.290;44.240;2023-07-16T04:06:08;20.45;53.25
75466;HTU21D;64049;46.290;44.240;2023-07-16T04:12:24;20.66;52.44
75466;HTU21D;64049;46.290;44.240;2023-07-16T04:14:55;20.75;52.40
75466;HTU21D;64049;46.290;44.240;2023-07-16T04:17:21;20.85;51.69
75466;HTU21D;64049;46.290;44.240;2023-07-16T04:19:47;20.86;52.80
75466;HTU21D;64049;46.290;44.240;2023-07-16T04:22:13;20.94;53.17
75466;HTU21D;64049;46.290;44.240;2023-07-16T04:24:39;21.01;52.46
75466;HTU21D;64049;46.290;44.240;2023-07-16T04:27:05;21.16;52.80
75466;HTU21D;64049;46.290;44.240;2023-07-16T04:32:56;21.32;50.44
75466;HTU21D;64049;46.290;44.240;2023-07-16T04:35:22;21.37;50.03
75466;HTU21D;64049;46.290;44.240;2023-07-16T04:45:01;21.63;49.40
75466;HTU21D;64049;46.290;44.240;2023-07-16T04:48:01;21.78;49.03
75466;HTU21D;64049;46.290;44.240;2023-07-16T04:50:27;21.91;48.86
75466;HTU21D;64049;46.290;44.240;2023-07-16T04:52:53;22.03;49.08
75466;HTU21D;64049;46.290;44.240;2023-07-16T04:55:19;22.13;47.47
75466;HTU21D;64049;46.290;44.240;2023-07-16T05:01:26;22.29;47.83
75466;HTU21D;64049;46.290;44.240;2023-07-16T05:03:52;22.41;46.98
75466;HTU21D;64049;46.290;44.240;2023-07-16T05:06:18;22.52;46.47
75466;HTU21D;64049;46.290;44.240;2023-07-16T05:08:46;22.63;46.40
75466;HTU21D;64049;46.290;44.240;2023-07-16T05:11:12;22.78;45.20
75466;HTU21D;64049;46.290;44.240;2023-07-16T05:13:38;22.78;44.98
75466;HTU21D;64049;46.290;44.240;2023-07-16T05:16:04;22.79;45.26
75466;HTU21D;64049;46.290;44.240;2023-07-16T05:22:16;23.05;45.01
75466;HTU21D;64049;46.290;44.240;2023-07-16T05:24:42;23.09;44.66
75466;HTU21D;64049;46.290;44.240;2023-07-16T05:27:09;23.12;45.03
75466;HTU21D;64049;46.290;44.240;2023-07-16T05:33:22;23.17;44.93
75466;HTU21D;64049;46.290;44.240;2023-07-16T05:35:48;23.28;45.28
75466;HTU21D;64049;46.290;44.240;2023-07-16T05:38:49;23.43;45.17
75466;HTU21D;64049;46.290;44.240;2023-07-16T05:41:16;23.58;44.50
75466;HTU21D;64049;46.290;44.240;2023-07-16T05:43:42;23.70;44.77
75466;HTU21D;64049;46.290;44.240;2023-07-16T05:46:07;23.70;43.50
75466;HTU21D;64049;46.290;44.240;2023-07-16T05:51:40;23.85;43.60
75466;HTU21D;64049;46.290;44.240;2023-07-16T05:54:06;23.92;43.46
75466;HTU21D;64049;46.290;44.240;2023-07-16T05:56:32;24.02;43.13
75466;HTU21D;64049;46.290;44.240;2023-07-16T06:02:46;24.16;42.69
75466;HTU21D;64049;46.290;44.240;2023-07-16T06:05:12;24.16;42.73
75466;HTU21D;64049;46.290;44.240;2023-07-16T06:07:48;24.08;42.93
75466;HTU21D;64049;46.290;44.240;2023-07-16T06:10:14;24.14;43.44
75466;HTU21D;64049;46.290;44.240;2023-07-16T06:12:40;24.31;41.79
75466;HTU21D;64049;46.290;44.240;2023-07-16T06:15:06;24.40;41.49
75466;HTU21D;64049;46.290;44.240;2023-07-16T06:17:45;24.40;41.53
75466;HTU21D;64049;46.290;44.240;2023-07-16T06:20:10;24.42;40.94
75466;HTU21D;64049;46.290;44.240;2023-07-16T06:22:36;24.41;41.16
75466;HTU21D;64049;46.290;44.240;2023-07-16T06:25:02;24.70;40.87
75466;HTU21D;64049;46.290;44.240;2023-07-16T06:27:56;25.10;40.66
75466;HTU21D;64049;46.290;44.240;2023-07-16T06:30:21;25.24;39.27
75466;HTU21D;64049;46.290;44.240;2023-07-16T06:32:47;25.18;39.47
75466;HTU21D;64049;46.290;44.240;2023-07-16T06:35:13;25.22;39.19
75466;HTU21D;64049;46.290;44.240;2023-07-16T06:37:43;25.44;38.51
75466;HTU21D;64049;46.290;44.240;2023-07-16T06:40:09;25.48;38.98
75466;HTU21D;64049;46.290;44.240;2023-07-16T06:42:35;25.51;38.80
75466;HTU21D;64049;46.290;44.240;2023-07-16T06:45:01;25.44;38.88
75466;HTU21D;64049;46.290;44.240;2023-07-16T06:47:33;25.15;38.99
75466;HTU21D;64049;46.290;44.240;2023-07-16T06:49:59;25.05;39.20
75466;HTU21D;64049;46.290;44.240;2023-07-16T06:52:25;25.24;39.59
75466;HTU21D;64049;46.290;44.240;2023-07-16T06:54:53;25.60;38.53
75466;HTU21D;64049;46.290;44.240;2023-07-16T06:57:19;25.73;37.57
75466;HTU21D;64049;46.290;44.240;2023-07-16T06:59:45;25.71;37.74
75466;HTU21D;64049;46.290;44.240;2023-07-16T07:02:11;25.76;37.57
75466;HTU21D;64049;46.290;44.240;2023-07-16T07:04:37;25.62;38.40
75466;HTU21D;64049;46.290;44.240;2023-07-16T07:07:04;25.72;38.43
75466;HTU21D;64049;46.290;44.240;2023-07-16T07:09:50;25.69;37.74
75466;HTU21D;64049;46.290;44.240;2023-07-16T07:12:16;25.44;38.58
75466;HTU21D;64049;46.290;44.240;2023-07-16T07:14:42;25.23;38.96
75466;HTU21D;64049;46.290;44.240;2023-07-16T07:17:07;25.14;38.90
75466;HTU21D;64049;46.290;44.240;2023-07-16T07:19:34;25.34;39.39
75466;HTU21D;64049;46.290;44.240;2023-07-16T07:22:00;25.42;39.25
75466;HTU21D;64049;46.290;44.240;2023-07-16T07:24:26;25.27;38.26
75466;HTU21D;64049;46.290;44.240;2023-07-16T07:26:52;25.21;38.53
75466;HTU21D;64049;46.290;44.240;2023-07-16T07:29:41;25.20;38.17
75466;HTU21D;64049;46.290;44.240;2023-07-16T07:32:10;25.14;38.59
75466;HTU21D;64049;46.290;44.240;2023-07-16T07:34:36;25.16;38.22
75466;HTU21D;64049;46.290;44.240;2023-07-16T07:37:02;25.03;37.58
75466;HTU21D;64049;46.290;44.240;2023-07-16T07:42:33;25.10;37.24
75466;HTU21D;64049;46.290;44.240;2023-07-16T07:44:59;25.13;36.63
75466;HTU21D;64049;46.290;44.240;2023-07-16T07:47:25;25.15;36.55
75466;HTU21D;64049;46.290;44.240;2023-07-16T07:49:52;25.32;36.81
75466;HTU21D;64049;46.290;44.240;2023-07-16T07:52:18;25.46;36.47
75466;HTU21D;64049;46.290;44.240;2023-07-16T07:54:44;25.64;36.08
75466;HTU21D;64049;46.290;44.240;2023-07-16T07:57:10;25.88;36.48
75466;HTU21D;64049;46.290;44.240;2023-07-16T07:59:39;26.02;35.75
75466;HTU21D;64049;46.290;44.240;2023-07-16T08:02:05;25.99;34.69
75466;HTU21D;64049;46.290;44.240;2023-07-16T08:04:31;25.93;35.18
75466;HTU21D;64049;46.290;44.240;2023-07-16T08:07:00;25.90;34.62
75466;HTU21D;64049;46.290;44.240;2023-07-16T08:09:28;26.10;34.63
75466;HTU21D;64049;46.290;44.240;2023-07-16T08:11:54;26.47;34.36
75466;HTU21D;64049;46.290;44.240;2023-07-16T08:14:20;26.72;33.99
75466;HTU21D;64049;46.290;44.240;2023-07-16T08:16:46;26.54;33.60
75466;HTU21D;64049;46.290;44.240;2023-07-16T08:21:59;26.54;33.59
75466;HTU21D;64049;46.290;44.240;2023-07-16T08:24:25;26.56;33.45
75466;HTU21D;64049;46.290;44.240;2023-07-16T08:26:51;26.46;33.09
75466;HTU21D;64049;46.290;44.240;2023-07-16T08:29:18;26.42;33.31
75466;HTU21D;64049;46.290;44.240;2023-07-16T08:31:44;26.77;33.51
75466;HTU21D;64049;46.290;44.240;2023-07-16T08:34:10;27.09;32.99
75466;HTU21D;64049;46.290;44.240;2023-07-16T08:36:36;27.36;32.86
75466;HTU21D;64049;46.290;44.240;2023-07-16T08:39:17;27.23;33.05
75466;HTU21D;64049;46.290;44.240;2023-07-16T08:41:44;27.08;32.62
75466;HTU21D;64049;46.290;44.240;2023-07-16T08:44:12;26.78;33.09
75466;HTU21D;64049;46.290;44.240;2023-07-16T08:46:39;26.56;33.09
75466;HTU21D;64049;46.290;44.240;2023-07-16T08:49:07;26.26;33.63
75466;HTU21D;64049;46.290;44.240;2023-07-16T08:51:34;26.06;33.96
75466;HTU21D;64049;46.290;44.240;2023-07-16T08:54:00;26.07;33.93
75466;HTU21D;64049;46.290;44.240;2023-07-16T08:56:26;26.31;34.11
75466;HTU21D;64049;46.290;44.240;2023-07-16T08:58:54;26.60;33.36
75466;HTU21D;64049;46.290;44.240;2023-07-16T09:01:23;26.66;32.89
75466;HTU21D;64049;46.290;44.240;2023-07-16T09:03:50;26.41;32.27
75466;HTU21D;64049;46.290;44.240;2023-07-16T09:06:16;26.21;32.34
75466;HTU21D;64049;46.290;44.240;2023-07-16T09:08:42;26.22;32.09
75466;HTU21D;64049;46.290;44.240;2023-07-16T09:11:11;26.09;31.78
75466;HTU21D;64049;46.290;44.240;2023-07-16T09:13:44;26.11;31.79
75466;HTU21D;64049;46.290;44.240;2023-07-16T09:16:10;26.16;32.09
75466;HTU21D;64049;46.290;44.240;2023-07-16T09:18:36;26.35;32.06
75466;HTU21D;64049;46.290;44.240;2023-07-16T09:21:02;26.40;32.12
75466;HTU21D;64049;46.290;44.240;2023-07-16T09:23:30;26.39;32.43
75466;HTU21D;64049;46.290;44.240;2023-07-16T09:25:56;26.33;32.80
75466;HTU21D;64049;46.290;44.240;2023-07-16T09:28:22;26.17;33.17
75466;HTU21D;64049;46.290;44.240;2023-07-16T09:30:49;25.95;33.81
75466;HTU21D;64049;46.290;44.240;2023-07-16T09:33:17;25.74;34.63
75466;HTU21D;64049;46.290;44.240;2023-07-16T09:35:43;25.57;35.37
75466;HTU21D;64049;46.290;44.240;2023-07-16T09:38:10;25.64;35.50
75466;HTU21D;64049;46.290;44.240;2023-07-16T09:40:37;25.72;35.18
75466;HTU21D;64049;46.290;44.240;2023-07-16T09:43:03;25.73;35.29
75466;HTU21D;64049;46.290;44.240;2023-07-16T09:45:30;25.83;35.36
75466;HTU21D;64049;46.290;44.240;2023-07-16T09:47:56;26.01;34.75
75466;HTU21D;64049;46.290;44.240;2023-07-16T09:50:27;26.40;33.65
75466;HTU21D;64049;46.290;44.240;2023-07-16T09:52:56;26.94;33.15
75466;HTU21D;64049;46.290;44.240;2023-07-16T09:55:23;27.61;31.63
75466;HTU21D;64049;46.290;44.240;2023-07-16T09:58:10;27.72;31.48
75466;HTU21D;64049;46.290;44.240;2023-07-16T10:00:37;27.54;30.67
75466;HTU21D;64049;46.290;44.240;2023-07-16T10:03:06;27.19;30.78
75466;HTU21D;64049;46.290;44.240;2023-07-16T10:05:36;27.44;31.29
75466;HTU21D;64049;46.290;44.240;2023-07-16T10:08:14;27.60;30.74
75466;HTU21D;64049;46.290;44.240;2023-07-16T10:10:46;27.66;30.48
75466;HTU21D;64049;46.290;44.240;2023-07-16T10:13:14;27.53;30.48
75466;HTU21D;64049;46.290;44.240;2023-07-16T10:15:51;27.69;29.77
75466;HTU21D;64049;46.290;44.240;2023-07-16T10:18:31;27.69;29.06
75466;HTU21D;64049;46.290;44.240;2023-07-16T10:23:40;27.25;29.64
75466;HTU21D;64049;46.290;44.240;2023-07-16T10:26:09;27.22;29.71
75466;HTU21D;64049;46.290;44.240;2023-07-16T10:32:26;27.05;29.13
75466;HTU21D;64049;46.290;44.240;2023-07-16T10:34:53;26.96;29.03
75466;HTU21D;64049;46.290;44.240;2023-07-16T10:37:19;26.98;29.33
75466;HTU21D;64049;46.290;44.240;2023-07-16T10:39:52;26.95;29.56
75466;HTU21D;64049;46.290;44.240;2023-07-16T10:42:19;27.12;29.58
75466;HTU21D;64049;46.290;44.240;2023-07-16T10:44:48;27.54;29.06
75466;HTU21D;64049;46.290;44.240;2023-07-16T10:47:19;27.65;28.65
75466;HTU21D;64049;46.290;44.240;2023-07-16T10:49:48;27.49;28.83
75466;HTU21D;64049;46.290;44.240;2023-07-16T10:52:14;27.42;28.96
75466;HTU21D;64049;46.290;44.240;2023-07-16T10:54:40;27.58;26.66
75466;HTU21D;64049;46.290;44.240;2023-07-16T10:57:06;27.81;26.65
75466;HTU21D;64049;46.290;44.240;2023-07-16T10:59:32;27.96;26.09
75466;HTU21D;64049;46.290;44.240;2023-07-16T11:01:58;28.03;25.75
75466;HTU21D;64049;46.290;44.240;2023-07-16T11:04:24;27.91;26.10
75466;HTU21D;64049;46.290;44.240;2023-07-16T11:06:50;28.08;26.42
75466;HTU21D;64049;46.290;44.240;2023-07-16T11:09:17;28.17;26.48
75466;HTU21D;64049;46.290;44.240;2023-07-16T11:11:42;28.34;26.39
75466;HTU21D;64049;46.290;44.240;2023-07-16T11:14:09;28.42;26.63
75466;HTU21D;64049;46.290;44.240;2023-07-16T11:16:36;28.40;26.43
75466;HTU21D;64049;46.290;44.240;2023-07-16T11:19:06;28.42;26.20
75466;HTU21D;64049;46.290;44.240;2023-07-16T11:21:36;28.38;26.42
75466;HTU21D;64049;46.290;44.240;2023-07-16T11:24:14;28.39;25.88
75466;HTU21D;64049;46.290;44.240;2023-07-16T11:26:51;28.42;26.45
75466;HTU21D;64049;46.290;44.240;2023-07-16T11:29:18;28.88;26.32
75466;HTU21D;64049;46.290;44.240;2023-07-16T11:31:44;29.20;25.39
75466;HTU21D;64049;46.290;44.240;2023-07-16T11:34:13;29.17;25.04
75466;HTU21D;64049;46.290;44.240;2023-07-16T11:36:39;29.13;24.81
75466;HTU21D;64049;46.290;44.240;2023-07-16T11:39:06;29.08;24.86
75466;HTU21D;64049;46.290;44.240;2023-07-16T11:41:32;29.19;25.14
75466;HTU21D;64049;46.290;44.240;2023-07-16T11:44:00;29.02;25.31
75466;HTU21D;64049;46.290;44.240;2023-07-16T11:46:31;29.05;25.62
75466;HTU21D;64049;46.290;44.240;2023-07-16T11:48:58;28.59;26.07
75466;HTU21D;64049;46.290;44.240;2023-07-16T11:51:23;28.16;27.04
75466;HTU21D;64049;46.290;44.240;2023-07-16T11:53:49;27.86;27.51
75466;HTU21D;64049;46.290;44.240;2023-07-16T11:56:15;27.73;27.68
75466;HTU21D;64049;46.290;44.240;2023-07-16T11:58:41;27.55;27.58
75466;HTU21D;64049;46.290;44.240;2023-07-16T12:01:07;27.45;28.44
75466;HTU21D;64049;46.290;44.240;2023-07-16T12:03:33;27.76;28.03
75466;HTU21D;64049;46.290;44.240;2023-07-16T12:05:59;27.52;28.26
75466;HTU21D;64049;46.290;44.240;2023-07-16T12:08:25;27.34;28.90
75466;HTU21D;64049;46.290;44.240;2023-07-16T12:10:51;28.63;27.00
75466;HTU21D;64049;46.290;44.240;2023-07-16T12:13:17;28.95;24.52
75466;HTU21D;64049;46.290;44.240;2023-07-16T12:15:43;28.14;26.13
75466;HTU21D;64049;46.290;44.240;2023-07-16T12:18:09;27.82;26.84
75466;HTU21D;64049;46.290;44.240;2023-07-16T12:20:35;28.18;25.06
75466;HTU21D;64049;46.290;44.240;2023-07-16T12:23:02;27.67;25.83
75466;HTU21D;64049;46.290;44.240;2023-07-16T12:25:28;27.74;26.07
75466;HTU21D;64049;46.290;44.240;2023-07-16T12:27:55;28.85;24.48
75466;HTU21D;64049;46.290;44.240;2023-07-16T12:30:24;29.64;24.07
75466;HTU21D;64049;46.290;44.240;2023-07-16T12:32:50;30.44;22.38
75466;HTU21D;64049;46.290;44.240;2023-07-16T12:35:16;30.15;22.53
75466;HTU21D;64049;46.290;44.240;2023-07-16T12:37:42;29.86;23.11
75466;HTU21D;64049;46.290;44.240;2023-07-16T12:40:08;29.98;23.63
75466;HTU21D;64049;46.290;44.240;2023-07-16T12:42:34;30.83;22.53
75466;HTU21D;64049;46.290;44.240;2023-07-16T12:45:01;30.11;23.59
75466;HTU21D;64049;46.290;44.240;2023-07-16T12:47:27;30.77;23.40
75466;HTU21D;64049;46.290;44.240;2023-07-16T12:49:53;29.85;24.03
75466;HTU21D;64049;46.290;44.240;2023-07-16T12:52:19;29.37;24.82
75466;HTU21D;64049;46.290;44.240;2023-07-16T12:54:45;29.44;24.49
75466;HTU21D;64049;46.290;44.240;2023-07-16T12:57:11;28.68;25.70
75466;HTU21D;64049;46.290;44.240;2023-07-16T12:59:37;29.59;24.36
75466;HTU21D;64049;46.290;44.240;2023-07-16T13:02:03;30.87;22.27
75466;HTU21D;64049;46.290;44.240;2023-07-16T13:04:29;31.60;21.80
75466;HTU21D;64049;46.290;44.240;2023-07-16T13:06:55;31.73;20.99
75466;HTU21D;64049;46.290;44.240;2023-07-16T13:09:21;31.08;21.82
75466;HTU21D;64049;46.290;44.240;2023-07-16T13:11:48;30.64;22.27
75466;HTU21D;64049;46.290;44.240;2023-07-16T13:14:14;29.42;24.46
75466;HTU21D;64049;46.290;44.240;2023-07-16T13:16:40;28.42;26.15
75466;HTU21D;64049;46.290;44.240;2023-07-16T13:19:06;27.80;27.04
75466;HTU21D;64049;46.290;44.240;2023-07-16T13:21:32;27.68;27.44
75466;HTU21D;64049;46.290;44.240;2023-07-16T13:23:57;27.39;27.62
75466;HTU21D;64049;46.290;44.240;2023-07-16T13:26:23;26.97;28.25
75466;HTU21D;64049;46.290;44.240;2023-07-16T13:28:49;26.83;28.68
75466;HTU21D;64049;46.290;44.240;2023-07-16T13:31:15;26.83;28.88
75466;HTU21D;64049;46.290;44.240;2023-07-16T13:33:41;26.84;29.10
75466;HTU21D;64049;46.290;44.240;2023-07-16T13:36:07;28.20;26.81
75466;HTU21D;64049;46.290;44.240;2023-07-16T13:38:33;28.59;26.25
75466;HTU21D;64049;46.290;44.240;2023-07-16T13:40:59;28.69;26.28
75466;HTU21D;64049;46.290;44.240;2023-07-16T13:43:24;28.11;26.59
75466;HTU21D;64049;46.290;44.240;2023-07-16T13:45:50;27.42;27.46
75466;HTU21D;64049;46.290;44.240;2023-07-16T13:48:16;27.29;27.77
75466;HTU21D;64049;46.290;44.240;2023-07-16T13:50:42;28.08;26.65
75466;HTU21D;64049;46.290;44.240;2023-07-16T13:53:08;27.67;27.13
75466;HTU21D;64049;46.290;44.240;2023-07-16T13:55:34;28.00;26.94
75466;HTU21D;64049;46.290;44.240;2023-07-16T13:58:00;28.75;25.97
75466;HTU21D;64049;46.290;44.240;2023-07-16T14:00:26;28.08;26.59
75466;HTU21D;64049;46.290;44.240;2023-07-16T14:02:52;27.32;27.71
75466;HTU21D;64049;46.290;44.240;2023-07-16T14:05:18;27.05;28.28
75466;HTU21D;64049;46.290;44.240;2023-07-16T14:07:45;27.37;27.89
75466;HTU21D;64049;46.290;44.240;2023-07-16T14:10:12;27.52;27.45
75466;HTU21D;64049;46.290;44.240;2023-07-16T14:12:38;27.54;27.60
75466;HTU21D;64049;46.290;44.240;2023-07-16T14:15:07;27.70;27.36
75466;HTU21D;64049;46.290;44.240;2023-07-16T14:17:33;27.56;27.80
75466;HTU21D;64049;46.290;44.240;2023-07-16T14:19:59;27.78;26.97
75466;HTU21D;64049;46.290;44.240;2023-07-16T14:22:24;27.60;26.60
75466;HTU21D;64049;46.290;44.240;2023-07-16T14:24:53;28.08;26.68
75466;HTU21D;64049;46.290;44.240;2023-07-16T14:27:20;27.87;26.86
75466;HTU21D;64049;46.290;44.240;2023-07-16T14:29:49;27.66;27.09
75466;HTU21D;64049;46.290;44.240;2023-07-16T14:32:16;28.01;27.18
75466;HTU21D;64049;46.290;44.240;2023-07-16T14:34:45;28.21;26.74
75466;HTU21D;64049;46.290;44.240;2023-07-16T14:37:18;28.08;26.86
75466;HTU21D;64049;46.290;44.240;2023-07-16T14:39:45;27.97;27.07
75466;HTU21D;64049;46.290;44.240;2023-07-16T14:42:17;27.64;27.44
75466;HTU21D;64049;46.290;44.240;2023-07-16T14:44:44;27.25;28.26
75466;HTU21D;64049;46.290;44.240;2023-07-16T14:47:10;26.97;28.81
75466;HTU21D;64049;46.290;44.240;2023-07-16T14:49:37;26.66;29.14
75466;HTU21D;64049;46.290;44.240;2023-07-16T14:52:10;26.47;29.81
75466;HTU21D;64049;46.290;44.240;2023-07-16T14:54:39;26.34;30.25
75466;HTU21D;64049;46.290;44.240;2023-07-16T14:57:08;26.25;30.32
75466;HTU21D;64049;46.290;44.240;2023-07-16T14:59:41;26.28;30.10
75466;HTU21D;64049;46.290;44.240;2023-07-16T15:02:10;26.58;29.32
75466;HTU21D;64049;46.290;44.240;2023-07-16T15:04:37;26.58;29.00
75466;HTU21D;64049;46.290;44.240;2023-07-16T15:07:06;26.41;29.42
75466;HTU21D;64049;46.290;44.240;2023-07-16T15:09:33;26.58;29.32
75466;HTU21D;64049;46.290;44.240;2023-07-16T15:12:02;26.64;28.81
75466;HTU21D;64049;46.290;44.240;2023-07-16T15:14:29;26.77;28.61
75466;HTU21D;64049;46.290;44.240;2023-07-16T15:17:04;26.85;28.14
75466;HTU21D;64049;46.290;44.240;2023-07-16T15:19:34;26.85;27.90
75466;HTU21D;64049;46.290;44.240;2023-07-16T15:22:02;26.78;27.55
75466;HTU21D;64049;46.290;44.240;2023-07-16T15:24:31;26.39;28.21
75466;HTU21D;64049;46.290;44.240;2023-07-16T15:26:58;26.09;28.95
75466;HTU21D;64049;46.290;44.240;2023-07-16T15:29:25;25.95;29.68
75466;HTU21D;64049;46.290;44.240;2023-07-16T15:31:51;26.19;30.03
75466;HTU21D;64049;46.290;44.240;2023-07-16T15:34:20;26.43;30.35
75466;HTU21D;64049;46.290;44.240;2023-07-16T15:36:54;26.70;30.35
75466;HTU21D;64049;46.290;44.240;2023-07-16T15:39:21;26.62;31.26
75466;HTU21D;64049;46.290;44.240;2023-07-16T15:41:48;26.53;31.73
75466;HTU21D;64049;46.290;44.240;2023-07-16T15:44:17;26.54;32.08
75466;HTU21D;64049;46.290;44.240;2023-07-16T15:46:43;26.50;32.64
75466;HTU21D;64049;46.290;44.240;2023-07-16T15:49:10;26.48;33.46
75466;HTU21D;64049;46.290;44.240;2023-07-16T15:51:37;26.22;34.01
75466;HTU21D;64049;46.290;44.240;2023-07-16T15:54:06;26.07;34.40
75466;HTU21D;64049;46.290;44.240;2023-07-16T15:56:33;25.96;34.44
75466;HTU21D;64049;46.290;44.240;2023-07-16T15:59:00;25.92;34.75
75466;HTU21D;64049;46.290;44.240;2023-07-16T16:01:27;25.77;35.27
75466;HTU21D;64049;46.290;44.240;2023-07-16T16:03:53;25.64;35.68
75466;HTU21D;64049;46.290;44.240;2023-07-16T16:06:19;25.54;35.85
75466;HTU21D;64049;46.290;44.240;2023-07-16T16:08:54;25.37;35.98
75466;HTU21D;64049;46.290;44.240;2023-07-16T16:11:20;25.16;36.25
75466;HTU21D;64049;46.290;44.240;2023-07-16T16:13:46;24.93;36.65
75466;HTU21D;64049;46.290;44.240;2023-07-16T16:16:12;24.72;37.02
75466;HTU21D;64049;46.290;44.240;2023-07-16T16:18:45;24.56;37.18
75466;HTU21D;64049;46.290;44.240;2023-07-16T16:21:11;24.33;37.58
75466;HTU21D;64049;46.290;44.240;2023-07-16T16:23:37;24.20;37.85
75466;HTU21D;64049;46.290;44.240;2023-07-16T16:26:03;24.02;38.00
75466;HTU21D;64049;46.290;44.240;2023-07-16T16:28:29;23.98;38.06
75466;HTU21D;64049;46.290;44.240;2023-07-16T16:30:55;23.96;37.98
75466;HTU21D;64049;46.290;44.240;2023-07-16T16:33:21;23.87;38.17
75466;HTU21D;64049;46.290;44.240;2023-07-16T16:35:47;23.69;38.36